Hauptseite
METAR-TAF:

METAR-TAF

Flughäfen :

Islay, Schottland

Islay Airport

Breite: 55-40-55N, Länge: 006-15-24W, Höhe: 16 m

Beobachtung

Neuester Wetterbericht von vor 43 Minuten, um 06:20 UTC
Wind 5 kt aus Ost/Südost
Temperatur 2°C
Luftfeuchtigkeit 80%
Luftdruck 997 hPa
Sichtweite 10 km oder mehr

METAR: EGPI 200620Z AUTO 12005KT 9999 BKN048/// 02/M01 Q0997

Zeit: 07:03 (07:03 UTC)

Prognose

Neuester Wetterbericht von vor 2 Stunden und 4 Minuten, um 04:59 UTC
Gültige Prognose vom 20 um 06 UTC bis 20 um 15 UTC
Wind 7 kt aus West/Nordwest
Sichtweite 10 km oder mehr
Durchbrochene Bewölkung in der Höhe von 3000 ft
Zeitweise
vom 20 um 06 UTC bis 20 um 15 UTC
Sichtweite: 4500 m
Durchbrochene Bewölkung in der Höhe von 900 ft
Regenschauer

TAF: EGPI 200459Z 2006/2015 30007KT 9999 BKN030 TEMPO 2006/2015 4500 SHRA BKN009

Wetterbeobachtungen und Prognosen von mehr als 4000 Flughäfen (METAR und TAF Bericht).

Die verfügbaren Stationen werden durch gelbe und rote Markierungen auf der Karte dargestellt.

Führen Sie die Maus auf sie, um den Namen der Station zu sehen.

Darauf klicken, um die Beobachtung von Wetterbeobachtungen und Prognosen zu sehen.

Um die Karte zu ändern : klicken Sie auf den grünen Tasten mit einem schwarzen Kreuz Zum Vergrößern, auf den grünen Button mit einem Gedankenstrich zu verkleinern, oder auf die grünen Pfeile für benachbarte Karten.


METAR-TAF: